createdAt,value
2022-11-05T00:05:11.990Z,2.63
2022-11-05T00:10:21.988Z,4.15
2022-11-05T00:15:41.769Z,3.27
2022-11-05T00:20:43.258Z,2.97
2022-11-05T00:25:53.958Z,6.18
2022-11-05T00:31:01.160Z,3.90
2022-11-05T00:36:03.635Z,4.93
2022-11-05T00:41:05.307Z,6.25
2022-11-05T00:46:06.829Z,11.02
2022-11-05T00:51:08.469Z,7.63
2022-11-05T00:56:10.092Z,5.80
2022-11-05T01:01:12.005Z,6.00
2022-11-05T01:06:16.032Z,9.93
2022-11-05T01:11:35.241Z,9.45
2022-11-05T01:16:38.349Z,12.02
2022-11-05T01:21:39.874Z,8.52
2022-11-05T01:26:41.355Z,9.35
2022-11-05T01:31:42.838Z,10.40
2022-11-05T01:36:44.474Z,9.23
2022-11-05T01:41:46.762Z,10.02
2022-11-05T01:46:48.293Z,9.45
2022-11-05T01:51:51.364Z,10.73
2022-11-05T01:56:59.916Z,11.38
2022-11-05T02:02:03.453Z,11.75
2022-11-05T02:07:07.246Z,12.20
2022-11-05T02:12:10.644Z,12.95
2022-11-05T02:17:36.526Z,11.75
2022-11-05T02:22:53.199Z,11.55
2022-11-05T02:28:05.771Z,13.65
2022-11-05T02:33:36.084Z,14.07
2022-11-05T02:38:46.050Z,13.25
2022-11-05T02:44:02.710Z,14.07
2022-11-05T02:49:17.226Z,19.02
2022-11-05T02:54:26.914Z,16.92
2022-11-05T02:59:28.637Z,18.35
2022-11-05T03:04:32.142Z,11.93
2022-11-05T03:09:51.836Z,12.50
2022-11-05T03:14:59.424Z,13.70
2022-11-05T03:20:40.004Z,13.40
2022-11-05T03:25:47.702Z,13.43
2022-11-05T03:30:52.409Z,16.33
2022-11-05T03:36:00.458Z,12.75
2022-11-05T03:41:07.453Z,15.30
2022-11-05T03:46:31.951Z,11.60
2022-11-05T03:51:43.113Z,13.45
2022-11-05T03:57:05.610Z,10.55
2022-11-05T04:02:07.330Z,12.05
2022-11-05T04:07:29.047Z,12.75
2022-11-05T04:12:49.133Z,9.93
2022-11-05T04:17:50.715Z,13.07
2022-11-05T04:23:21.003Z,12.85
2022-11-05T04:28:42.472Z,10.60
2022-11-05T04:33:43.957Z,13.93
2022-11-05T04:38:45.457Z,17.75
2022-11-05T04:43:46.927Z,12.00
2022-11-05T04:48:48.505Z,10.18
2022-11-05T04:53:49.963Z,9.60
2022-11-05T04:58:51.900Z,11.00
2022-11-05T05:03:54.552Z,12.50
2022-11-05T05:08:55.994Z,10.95
2022-11-05T05:13:57.693Z,12.52
2022-11-05T05:18:59.154Z,13.35
2022-11-05T05:24:00.838Z,11.73
2022-11-05T05:29:03.584Z,12.35
2022-11-05T05:34:06.583Z,9.65
2022-11-05T05:39:11.087Z,8.95
2022-11-05T05:44:12.735Z,9.27
2022-11-05T05:49:14.422Z,6.95
2022-11-05T05:54:16.326Z,8.68
2022-11-05T05:59:17.874Z,4.68
2022-11-05T06:04:19.404Z,6.35
2022-11-05T06:09:20.906Z,7.50
2022-11-05T06:14:22.387Z,5.60
2022-11-05T06:19:23.938Z,5.03
2022-11-05T06:24:25.452Z,8.52
2022-11-05T06:29:26.887Z,6.35
2022-11-05T06:34:28.413Z,6.15
2022-11-05T06:39:29.852Z,6.35
2022-11-05T06:44:31.350Z,5.95
2022-11-05T06:49:32.831Z,5.88
2022-11-05T06:54:34.312Z,4.63
2022-11-05T06:59:37.048Z,7.22
2022-11-05T07:04:38.543Z,5.43
2022-11-05T07:09:43.072Z,6.13
2022-11-05T07:14:44.542Z,6.32
2022-11-05T07:19:45.953Z,9.63
2022-11-05T07:24:48.084Z,8.18
2022-11-05T07:29:49.600Z,6.30
2022-11-05T07:34:51.119Z,8.20
2022-11-05T07:39:52.584Z,7.72
2022-11-05T07:44:54.051Z,7.22
2022-11-05T07:49:55.535Z,6.13
2022-11-05T07:54:56.994Z,15.77
2022-11-05T07:59:58.506Z,6.20
2022-11-05T08:04:59.979Z,4.25
2022-11-05T08:10:03.596Z,4.05
2022-11-05T08:15:05.579Z,4.28
2022-11-05T08:20:07.415Z,4.63
2022-11-05T08:25:09.208Z,4.82
2022-11-05T08:30:11.092Z,4.65
2022-11-05T08:35:12.559Z,3.22
2022-11-05T08:40:14.205Z,5.15
2022-11-05T08:45:15.748Z,4.10
2022-11-05T08:50:17.568Z,5.88
2022-11-05T08:55:19.175Z,3.78
2022-11-05T09:00:20.729Z,4.80
2022-11-05T09:05:22.285Z,4.05
2022-11-05T09:10:24.272Z,6.45
2022-11-05T09:15:25.795Z,3.65
2022-11-05T09:20:27.453Z,4.30
2022-11-05T09:25:29.082Z,4.20
2022-11-05T09:30:30.580Z,3.10
2022-11-05T09:35:32.119Z,3.63
2022-11-05T09:40:44.149Z,4.75
2022-11-05T09:45:48.539Z,2.45
2022-11-05T09:50:53.281Z,6.18
2022-11-05T09:55:57.443Z,6.22
2022-11-05T10:00:59.248Z,3.50
2022-11-05T10:06:09.252Z,4.07
2022-11-05T10:11:18.313Z,3.40
2022-11-05T10:16:39.623Z,3.03
2022-11-05T10:27:04.335Z,5.97
2022-11-05T10:32:07.286Z,3.33
2022-11-05T10:37:10.186Z,6.78
2022-11-05T10:42:38.386Z,3.92
2022-11-05T10:48:01.011Z,8.27
2022-11-05T10:53:15.162Z,8.40
2022-11-05T10:58:16.585Z,7.30
2022-11-05T11:03:36.157Z,6.68
2022-11-05T11:08:38.147Z,7.40
2022-11-05T11:14:04.427Z,6.43
2022-11-05T11:19:31.010Z,6.50
2022-11-05T11:24:45.188Z,3.97
2022-11-05T11:29:51.135Z,6.03
2022-11-05T11:34:58.492Z,5.32
2022-11-05T11:40:29.359Z,5.43
2022-11-05T11:45:45.542Z,6.65
2022-11-05T11:50:48.341Z,7.57
2022-11-05T11:56:18.020Z,5.13
2022-11-05T12:01:48.709Z,3.70
2022-11-05T12:07:26.271Z,6.72
2022-11-05T12:13:01.933Z,8.23
2022-11-05T12:18:19.389Z,9.27
2022-11-05T12:23:35.920Z,7.50
2022-11-05T12:29:20.120Z,8.38
2022-11-05T12:35:05.395Z,5.57
2022-11-05T12:40:12.945Z,7.68
2022-11-05T12:45:43.220Z,11.20
2022-11-05T12:51:03.702Z,10.13
2022-11-05T12:56:21.415Z,10.85
2022-11-05T13:01:33.451Z,10.27
2022-11-05T13:06:40.974Z,6.00
2022-11-05T13:11:45.992Z,8.07
2022-11-05T13:16:59.875Z,9.70
2022-11-05T13:22:12.373Z,6.18
2022-11-05T13:27:36.937Z,8.55
2022-11-05T13:32:47.045Z,8.90
2022-11-05T13:38:17.620Z,6.78
2022-11-05T13:43:40.126Z,7.72
2022-11-05T13:48:50.798Z,4.22
2022-11-05T13:54:14.123Z,8.10
2022-11-05T13:59:36.964Z,4.57
2022-11-05T14:04:47.339Z,5.70
2022-11-05T14:09:55.826Z,5.47
2022-11-05T14:15:03.962Z,6.05
2022-11-05T14:20:05.432Z,4.07
2022-11-05T14:25:19.210Z,6.95
2022-11-05T14:30:48.944Z,5.43
2022-11-05T14:35:51.613Z,4.85
2022-11-05T14:41:02.457Z,7.05
2022-11-05T14:46:06.428Z,4.38
2022-11-05T14:51:44.215Z,4.65
2022-11-05T14:56:56.507Z,8.10
2022-11-05T15:02:15.262Z,6.70
2022-11-05T15:07:22.533Z,5.43
2022-11-05T15:12:37.333Z,7.25
2022-11-05T15:17:47.993Z,6.22
2022-11-05T15:28:02.969Z,7.40
2022-11-05T15:33:31.795Z,7.15
2022-11-05T15:38:35.179Z,13.40
2022-11-05T15:43:47.732Z,3.80
2022-11-05T15:49:04.978Z,9.23
2022-11-05T15:54:29.014Z,8.43
2022-11-05T15:59:29.676Z,12.85
2022-11-05T16:04:34.571Z,6.45
2022-11-05T16:09:40.055Z,9.35
2022-11-05T16:14:42.329Z,8.00
2022-11-05T16:19:45.459Z,10.18
2022-11-05T16:24:47.349Z,13.70
2022-11-05T16:29:48.762Z,7.18
2022-11-05T16:34:59.208Z,14.05
2022-11-05T16:40:01.912Z,17.05
2022-11-05T16:45:04.315Z,18.60
2022-11-05T16:50:17.835Z,12.20
2022-11-05T16:55:19.972Z,11.55
2022-11-05T17:00:23.016Z,10.05
2022-11-05T17:05:29.723Z,12.90
2022-11-05T17:10:31.434Z,20.50
2022-11-05T17:15:35.684Z,18.10
2022-11-05T17:20:41.640Z,15.23
2022-11-05T17:25:45.701Z,31.38
2022-11-05T17:30:52.942Z,14.27
2022-11-05T17:35:55.323Z,14.02
2022-11-05T17:40:56.794Z,15.35
2022-11-05T17:46:04.122Z,8.32
2022-11-05T17:51:10.101Z,9.80
2022-11-05T17:56:13.476Z,10.93
2022-11-05T18:01:31.774Z,18.10
2022-11-05T18:06:33.344Z,27.08
2022-11-05T18:11:36.201Z,32.45
2022-11-05T18:16:38.095Z,28.80
2022-11-05T18:21:39.568Z,21.92
2022-11-05T18:26:42.087Z,12.90
2022-11-05T18:31:43.734Z,19.67
2022-11-05T18:36:45.607Z,17.88
2022-11-05T18:41:47.460Z,10.40
2022-11-05T18:46:58.170Z,11.57
2022-11-05T18:52:00.080Z,17.75
2022-11-05T18:57:01.632Z,17.83
2022-11-05T19:02:03.413Z,17.45
2022-11-05T19:07:06.394Z,18.40
2022-11-05T19:12:08.115Z,14.63
2022-11-05T19:17:09.648Z,13.75
2022-11-05T19:22:11.453Z,14.10
2022-11-05T19:27:12.902Z,12.45
2022-11-05T19:32:14.619Z,13.43
2022-11-05T19:37:16.078Z,10.85
2022-11-05T19:42:17.530Z,14.82
2022-11-05T19:47:18.953Z,14.80
2022-11-05T19:52:20.527Z,11.65
2022-11-05T19:57:22.068Z,16.63
2022-11-05T20:02:23.614Z,38.90
2022-11-05T20:07:25.214Z,32.42
2022-11-05T20:12:26.700Z,30.42
2022-11-05T20:17:28.264Z,28.25
2022-11-05T20:22:29.780Z,25.95
2022-11-05T20:27:31.224Z,24.55
2022-11-05T20:32:32.728Z,22.77
2022-11-05T20:37:34.495Z,26.83
2022-11-05T20:42:36.958Z,21.73
2022-11-05T20:47:38.587Z,31.15
2022-11-05T20:52:40.424Z,23.95
2022-11-05T20:57:41.958Z,19.83
2022-11-05T21:02:43.577Z,21.92
2022-11-05T21:07:45.228Z,34.65
2022-11-05T21:12:47.250Z,25.17
2022-11-05T21:17:50.321Z,34.38
2022-11-05T21:22:51.755Z,37.90
2022-11-05T21:27:53.251Z,33.70
2022-11-05T21:32:54.685Z,30.25
2022-11-05T21:37:56.283Z,19.10
2022-11-05T21:42:57.807Z,21.35
2022-11-05T21:47:59.521Z,24.02
2022-11-05T21:53:19.283Z,15.95
2022-11-05T21:58:39.849Z,17.10
2022-11-05T22:03:41.350Z,13.57
2022-11-05T22:08:42.836Z,13.77
2022-11-05T22:13:44.343Z,12.13
2022-11-05T22:18:45.834Z,12.32
2022-11-05T22:23:47.312Z,12.68
2022-11-05T22:28:48.833Z,10.60
2022-11-05T22:33:50.508Z,12.30
2022-11-05T22:38:52.091Z,15.98
2022-11-05T22:43:53.601Z,15.60
2022-11-05T22:48:58.682Z,11.07
2022-11-05T22:54:00.750Z,15.55
2022-11-05T22:59:03.340Z,11.20
2022-11-05T23:04:04.913Z,13.77
2022-11-05T23:09:31.465Z,11.95
2022-11-05T23:14:33.245Z,10.73
2022-11-05T23:19:53.152Z,10.73
2022-11-05T23:24:54.667Z,11.30
2022-11-05T23:30:00.441Z,8.18
2022-11-05T23:35:02.020Z,15.05
2022-11-05T23:40:06.003Z,9.70
2022-11-05T23:45:26.991Z,12.65
2022-11-05T23:50:33.103Z,13.35
2022-11-05T23:55:38.012Z,12.88
